Time;durP1;ratioP1;P1;durP2;ratioP2;P2;SDS_P1;SDS_P2;PMS_P1;PMS_P2;Temp;Humidity;BMP_temperature;BMP_pressure;BME280_temperature;BME280_humidity;BME280_pressure;Samples;Min_cycle;Max_cycle;Signal;HPM_P1;HPM_P2
2023/05/17 00:01:06;;;;;;;3.53;3.10;;;9.50;99.90;;;;;;5050596;28;20470;-54
2023/05/17 00:03:33;;;;;;;3.43;2.33;;;9.40;99.90;;;;;;5050358;28;20477;-55
2023/05/17 00:06:00;;;;;;;2.93;2.50;;;9.70;99.90;;;;;;5050736;28;20521;-55
2023/05/17 00:08:27;;;;;;;2.70;2.43;;;9.80;99.90;;;;;;5050479;28;20537;-56
2023/05/17 00:10:54;;;;;;;2.70;2.37;;;9.90;99.90;;;;;;5050426;28;20481;-54
2023/05/17 00:13:21;;;;;;;4.30;2.67;;;10.00;99.90;;;;;;5050598;28;20862;-54
2023/05/17 00:15:49;;;;;;;2.50;2.20;;;9.90;99.90;;;;;;5050303;28;20588;-55
2023/05/17 00:18:16;;;;;;;2.63;2.33;;;10.00;99.90;;;;;;5050367;28;20506;-55
2023/05/17 00:20:43;;;;;;;3.20;2.20;;;10.10;99.90;;;;;;5050512;28;20906;-54
2023/05/17 00:23:10;;;;;;;3.03;2.60;;;9.70;99.90;;;;;;5050731;28;20542;-54
2023/05/17 00:25:36;;;;;;;2.57;2.37;;;9.80;99.90;;;;;;5050230;28;20482;-55
2023/05/17 00:28:04;;;;;;;3.10;2.57;;;9.70;99.90;;;;;;5050448;28;20497;-54
2023/05/17 00:30:30;;;;;;;2.90;2.27;;;9.40;99.90;;;;;;5050328;28;20493;-55
2023/05/17 00:32:59;;;;;;;3.23;2.03;;;9.70;99.90;;;;;;5050305;28;20532;-54
2023/05/17 00:35:26;;;;;;;2.57;2.00;;;9.70;99.90;;;;;;5050140;28;20839;-54
2023/05/17 00:37:53;;;;;;;3.40;2.20;;;9.30;99.90;;;;;;5049515;28;20569;-55
2023/05/17 00:40:20;;;;;;;2.33;2.10;;;9.50;99.90;;;;;;5053241;28;20521;-55
2023/05/17 00:42:47;;;;;;;3.07;2.40;;;9.60;99.90;;;;;;5053973;28;21028;-55
2023/05/17 00:45:14;;;;;;;2.63;2.27;;;9.80;99.90;;;;;;5053507;28;20474;-55
2023/05/17 00:47:41;;;;;;;2.70;2.10;;;9.90;99.90;;;;;;5053516;28;20481;-55
2023/05/17 00:50:10;;;;;;;2.77;2.13;;;9.70;99.90;;;;;;5053460;28;20495;-53
2023/05/17 00:52:38;;;;;;;1.93;1.70;;;9.90;99.90;;;;;;5053613;28;20468;-54
2023/05/17 00:55:05;;;;;;;2.73;2.40;;;9.40;99.90;;;;;;5053580;28;20537;-54
2023/05/17 00:57:32;;;;;;;2.87;1.90;;;9.60;99.90;;;;;;5052833;28;21074;-55
2023/05/17 01:00:00;;;;;;;2.13;1.93;;;9.80;99.90;;;;;;5054039;28;20532;-55
2023/05/17 01:02:26;;;;;;;1.80;1.53;;;9.90;99.90;;;;;;5053404;28;20469;-55
2023/05/17 01:04:53;;;;;;;2.87;1.60;;;9.90;99.90;;;;;;5053434;28;20537;-54
2023/05/17 01:07:22;;;;;;;1.93;1.70;;;10.00;99.90;;;;;;5053378;28;20524;-55
2023/05/17 01:09:49;;;;;;;1.60;1.00;;;9.90;99.90;;;;;;5053037;28;20497;-55
2023/05/17 01:12:26;;;;;;;1.30;1.00;;;9.50;99.90;;;;;;5053283;28;20540;-54
2023/05/17 01:15:03;;;;;;;1.57;1.30;;;9.80;99.90;;;;;;5053282;28;20481;-55
2023/05/17 01:17:39;;;;;;;1.20;1.00;;;10.00;99.90;;;;;;5053083;28;20629;-55
2023/05/17 01:20:12;;;;;;;2.97;0.90;;;9.80;99.90;;;;;;5053093;28;21003;-55
2023/05/17 01:22:46;;;;;;;1.10;0.80;;;9.40;99.90;;;;;;5053444;28;20450;-57
2023/05/17 01:25:36;;;;;;;1.30;0.83;;;9.10;99.90;;;;;;5054239;28;20469;-56
2023/05/17 01:28:06;;;;;;;1.00;0.50;;;9.10;99.90;;;;;;5054999;28;20500;-56
2023/05/17 01:30:34;;;;;;;1.60;0.90;;;9.00;99.90;;;;;;5055015;28;20453;-63
2023/05/17 01:33:03;;;;;;;1.50;1.10;;;8.90;99.90;;;;;;5054676;28;20449;-56
2023/05/17 01:35:30;;;;;;;1.50;1.20;;;8.80;99.90;;;;;;5055808;28;20469;-54
2023/05/17 01:37:57;;;;;;;1.40;1.03;;;8.80;99.90;;;;;;5056284;28;20482;-55
2023/05/17 01:40:24;;;;;;;1.30;0.80;;;8.80;99.90;;;;;;5055803;28;20469;-55
2023/05/17 01:42:56;;;;;;;1.00;0.70;;;8.90;99.90;;;;;;5055990;28;20515;-54
2023/05/17 01:45:30;;;;;;;1.33;0.80;;;8.80;99.90;;;;;;5053232;28;20520;-57
2023/05/17 01:48:11;;;;;;;0.93;0.60;;;8.80;99.90;;;;;;5053698;28;20532;-56
2023/05/17 01:50:39;;;;;;;1.00;0.70;;;8.70;99.90;;;;;;5053794;28;20445;-55
2023/05/17 01:53:10;;;;;;;0.93;0.60;;;8.70;99.90;;;;;;5054405;28;20449;-56
2023/05/17 01:55:43;;;;;;;1.03;0.70;;;8.60;99.90;;;;;;5054271;28;20994;-55
2023/05/17 01:58:12;;;;;;;1.10;0.70;;;8.60;99.90;;;;;;5053776;28;20508;-56
2023/05/17 02:00:43;;;;;;;1.00;0.70;;;8.60;99.90;;;;;;5055030;28;21011;-54
2023/05/17 02:03:16;;;;;;;1.43;0.60;;;8.60;99.90;;;;;;5055380;28;20551;-55
2023/05/17 02:05:43;;;;;;;1.00;0.63;;;8.60;99.90;;;;;;5054773;28;20872;-55
2023/05/17 02:08:10;;;;;;;0.90;0.50;;;8.60;99.90;;;;;;5055100;28;20486;-56
2023/05/17 02:10:37;;;;;;;1.00;0.50;;;8.50;99.90;;;;;;5055485;28;20532;-56
2023/05/17 02:13:04;;;;;;;1.00;0.60;;;8.60;99.90;;;;;;5054123;28;20511;-56
2023/05/17 02:15:31;;;;;;;1.00;0.60;;;8.50;99.90;;;;;;5053812;28;20492;-58
2023/05/17 02:18:00;;;;;;;0.90;0.60;;;8.40;99.90;;;;;;5054427;28;20512;-55
2023/05/17 02:20:26;;;;;;;1.00;0.50;;;8.50;99.90;;;;;;5054405;28;20477;-54
2023/05/17 02:22:53;;;;;;;0.90;0.53;;;8.60;99.90;;;;;;5055099;28;20943;-56
2023/05/17 02:25:20;;;;;;;1.10;0.70;;;8.50;99.90;;;;;;5054584;28;20914;-54
2023/05/17 02:27:47;;;;;;;1.00;0.50;;;8.30;99.90;;;;;;5054722;28;20521;-55
2023/05/17 02:30:15;;;;;;;0.90;0.60;;;8.30;99.90;;;;;;5054661;28;20492;-55
2023/05/17 02:32:42;;;;;;;1.00;0.50;;;8.40;99.90;;;;;;5054987;28;20452;-55
2023/05/17 02:35:11;;;;;;;0.90;0.50;;;8.40;99.90;;;;;;5054038;28;20442;-55
2023/05/17 02:37:38;;;;;;;1.33;0.60;;;8.30;99.90;;;;;;5054007;28;20527;-56
2023/05/17 02:40:08;;;;;;;0.90;0.60;;;8.40;99.90;;;;;;5053914;28;20495;-55
2023/05/17 02:42:35;;;;;;;1.00;0.50;;;8.30;99.90;;;;;;5053995;28;20812;-56
2023/05/17 02:45:02;;;;;;;0.90;0.50;;;8.30;99.90;;;;;;5054762;28;20473;-55
2023/05/17 02:47:29;;;;;;;1.00;0.60;;;8.30;99.90;;;;;;5054632;28;20438;-54
2023/05/17 02:49:56;;;;;;;1.10;0.70;;;8.20;99.90;;;;;;5054336;28;20544;-54
2023/05/17 02:52:25;;;;;;;0.87;0.40;;;8.20;99.90;;;;;;5054785;28;20503;-55
2023/05/17 02:54:51;;;;;;;0.90;0.57;;;8.20;99.90;;;;;;5053863;28;20956;-55
2023/05/17 02:57:18;;;;;;;0.83;0.40;;;8.30;99.90;;;;;;5052756;28;20516;-56
2023/05/17 02:59:45;;;;;;;0.80;0.40;;;8.30;99.90;;;;;;5052848;28;20494;-57
2023/05/17 03:02:12;;;;;;;0.83;0.40;;;8.20;99.90;;;;;;5052080;28;20867;-56
2023/05/17 03:04:39;;;;;;;0.90;0.60;;;8.10;99.90;;;;;;5052989;28;20807;-57
2023/05/17 03:07:07;;;;;;;1.40;0.57;;;8.20;99.90;;;;;;5052361;28;20871;-57
2023/05/17 03:09:36;;;;;;;1.00;0.40;;;8.10;99.90;;;;;;5053395;28;20552;-57
2023/05/17 03:12:03;;;;;;;0.90;0.50;;;8.30;99.90;;;;;;5053909;28;20457;-55
2023/05/17 03:14:30;;;;;;;0.90;0.57;;;8.20;99.90;;;;;;5053057;28;21002;-57
2023/05/17 03:16:57;;;;;;;1.00;0.57;;;8.20;99.90;;;;;;5052129;28;20539;-55
2023/05/17 03:19:24;;;;;;;0.80;0.40;;;8.30;99.90;;;;;;5051492;28;20498;-56
2023/05/17 03:21:51;;;;;;;0.90;0.50;;;8.30;99.90;;;;;;5051734;28;20453;-57
2023/05/17 03:24:18;;;;;;;0.90;0.60;;;8.40;99.90;;;;;;5052619;28;21153;-55
2023/05/17 03:26:46;;;;;;;1.17;0.50;;;8.40;99.90;;;;;;5052496;28;20496;-56
2023/05/17 03:29:13;;;;;;;1.47;0.47;;;8.10;99.90;;;;;;5052198;28;20537;-56
2023/05/17 03:31:40;;;;;;;1.30;0.60;;;8.30;99.90;;;;;;5052562;28;20536;-56
2023/05/17 03:34:07;;;;;;;0.87;0.40;;;8.20;99.90;;;;;;5052721;28;20895;-56
2023/05/17 03:36:34;;;;;;;1.10;0.53;;;8.20;99.90;;;;;;5053043;28;20487;-54
2023/05/17 03:39:02;;;;;;;0.90;0.40;;;8.30;99.90;;;;;;5052972;28;20568;-56
2023/05/17 03:41:28;;;;;;;0.80;0.40;;;8.10;99.90;;;;;;5054072;28;20442;-56
2023/05/17 03:43:57;;;;;;;0.90;0.43;;;8.40;99.90;;;;;;5053920;28;20551;-57
2023/05/17 03:46:28;;;;;;;0.90;0.50;;;8.20;99.90;;;;;;5097986;22;20580;-83
2023/05/17 03:48:55;;;;;;;0.90;0.50;;;8.00;99.90;;;;;;5073093;28;20864;-84
2023/05/17 03:51:22;;;;;;;0.80;0.30;;;8.10;99.90;;;;;;5071408;28;20490;-84
2023/05/17 03:53:57;;;;;;;0.90;0.50;;;8.00;99.90;;;;;;5071735;28;20425;-83
2023/05/17 03:56:24;;;;;;;0.90;0.40;;;8.10;99.90;;;;;;5071797;28;20448;-84
2023/05/17 03:58:51;;;;;;;0.90;0.50;;;8.50;99.90;;;;;;5101542;22;20986;-52
2023/05/17 04:01:20;;;;;;;0.90;0.47;;;8.70;99.90;;;;;;5090801;28;20814;-52
2023/05/17 04:03:47;;;;;;;0.80;0.43;;;8.40;99.90;;;;;;5090484;28;20678;-52
2023/05/17 04:06:14;;;;;;;1.33;0.80;;;8.40;99.90;;;;;;5090879;28;20542;-53
2023/05/17 04:08:41;;;;;;;0.80;0.40;;;8.40;99.90;;;;;;5090233;28;20836;-53
2023/05/17 04:11:12;;;;;;;1.60;0.60;;;8.10;99.90;;;;;;5114291;22;20522;-84
2023/05/17 04:13:39;;;;;;;0.80;0.30;;;8.50;99.90;;;;;;5094563;28;20455;-84
2023/05/17 04:16:07;;;;;;;0.90;0.43;;;8.30;99.90;;;;;;5095252;28;20940;-84
2023/05/17 04:18:37;;;;;;;0.90;0.57;;;8.10;99.90;;;;;;5094918;28;20476;-84
2023/05/17 04:21:04;;;;;;;0.80;0.40;;;8.10;99.90;;;;;;5095479;28;20431;-83
2023/05/17 04:23:32;;;;;;;0.90;0.43;;;8.10;99.90;;;;;;5097414;28;20493;-84
2023/05/17 04:26:00;;;;;;;0.90;0.60;;;8.30;99.90;;;;;;5097887;28;20493;-83
2023/05/17 04:28:27;;;;;;;0.93;0.60;;;8.50;99.90;;;;;;5095408;28;20460;-83
2023/05/17 04:30:55;;;;;;;0.90;0.60;;;8.60;99.90;;;;;;5094742;28;20454;-83
2023/05/17 04:33:23;;;;;;;0.93;0.60;;;8.50;99.90;;;;;;5095202;28;20455;-83
2023/05/17 04:35:55;;;;;;;0.80;0.50;;;8.20;99.90;;;;;;5094819;28;20511;-83
2023/05/17 04:38:23;;;;;;;0.90;0.70;;;8.30;99.90;;;;;;5094699;28;20476;-83
2023/05/17 04:40:50;;;;;;;0.90;0.60;;;8.60;99.90;;;;;;5093769;28;20460;-83
2023/05/17 04:43:17;;;;;;;2.13;1.00;;;8.80;99.90;;;;;;5087215;28;20850;-84
2023/05/17 04:45:44;;;;;;;1.30;0.87;;;8.90;99.90;;;;;;5087656;28;20813;-84
2023/05/17 04:48:12;;;;;;;1.20;1.03;;;8.90;99.90;;;;;;5091227;28;20455;-83
2023/05/17 04:50:39;;;;;;;0.90;0.53;;;8.70;99.90;;;;;;5088972;28;20435;-84
2023/05/17 04:53:08;;;;;;;0.90;0.50;;;8.70;99.90;;;;;;5078004;28;20529;-84
2023/05/17 04:55:35;;;;;;;0.90;0.50;;;8.50;99.90;;;;;;5087710;28;20936;-84
2023/05/17 04:58:02;;;;;;;0.90;0.40;;;8.30;99.90;;;;;;5094981;28;20843;-84
2023/05/17 05:00:29;;;;;;;0.90;0.43;;;8.40;99.90;;;;;;5091768;28;20434;-84
2023/05/17 05:02:56;;;;;;;1.10;0.70;;;8.20;99.90;;;;;;5082920;28;20447;-84
2023/05/17 05:05:23;;;;;;;0.90;0.50;;;8.30;99.90;;;;;;5084373;28;20432;-83
2023/05/17 05:07:51;;;;;;;1.13;0.80;;;8.70;99.90;;;;;;5074643;28;20461;-84
2023/05/17 05:10:19;;;;;;;1.20;0.90;;;8.70;99.90;;;;;;5077792;28;20453;-83
2023/05/17 05:12:46;;;;;;;1.57;1.03;;;8.70;99.90;;;;;;5083532;28;20440;-83
2023/05/17 05:15:13;;;;;;;1.20;0.80;;;8.80;99.90;;;;;;5088443;28;20509;-85
2023/05/17 05:17:40;;;;;;;1.53;1.10;;;8.90;99.90;;;;;;5091810;28;20563;-84
2023/05/17 05:20:09;;;;;;;1.20;0.70;;;9.00;99.90;;;;;;5092656;28;20796;-84
2023/05/17 05:22:36;;;;;;;1.20;0.80;;;8.70;99.90;;;;;;5089936;28;20461;-83
2023/05/17 05:25:03;;;;;;;1.83;0.60;;;8.40;99.90;;;;;;5085070;28;20441;-83
2023/05/17 05:27:34;;;;;;;0.90;0.50;;;8.40;99.90;;;;;;5089450;28;20460;-83
2023/05/17 05:30:01;;;;;;;0.90;0.60;;;8.50;99.90;;;;;;5088146;28;20458;-84
2023/05/17 05:32:28;;;;;;;1.20;0.90;;;8.40;99.90;;;;;;5090805;28;20440;-85
2023/05/17 05:34:55;;;;;;;1.50;0.70;;;8.20;99.90;;;;;;5085563;28;20835;-84
2023/05/17 05:37:23;;;;;;;1.00;0.70;;;8.10;99.90;;;;;;5096640;28;20442;-83
2023/05/17 05:39:49;;;;;;;1.37;0.67;;;8.40;99.90;;;;;;5093820;28;20849;-85
2023/05/17 05:42:16;;;;;;;0.90;0.40;;;8.60;99.90;;;;;;5087040;28;21016;-84
2023/05/17 05:44:45;;;;;;;1.07;0.60;;;8.40;99.90;;;;;;5094635;28;20482;-84
2023/05/17 05:47:12;;;;;;;1.63;0.60;;;8.60;99.90;;;;;;5087215;28;20456;-83
2023/05/17 05:49:39;;;;;;;0.90;0.50;;;8.70;99.90;;;;;;5085492;28;20589;-83
2023/05/17 05:52:06;;;;;;;0.90;0.60;;;8.40;99.90;;;;;;5092620;28;20527;-84
2023/05/17 05:54:33;;;;;;;1.13;0.67;;;8.30;99.90;;;;;;5088334;28;20507;-85
2023/05/17 05:57:00;;;;;;;0.90;0.50;;;8.40;99.90;;;;;;5090644;28;20448;-83
2023/05/17 05:59:27;;;;;;;1.10;0.70;;;8.20;99.90;;;;;;5093307;28;20480;-84
2023/05/17 06:01:56;;;;;;;0.87;0.47;;;8.20;99.90;;;;;;5094928;28;20456;-84
2023/05/17 06:04:23;;;;;;;1.00;0.50;;;8.10;99.90;;;;;;5094857;28;21012;-84
2023/05/17 06:06:50;;;;;;;1.33;0.90;;;8.30;99.90;;;;;;5093455;28;20450;-85
2023/05/17 06:09:17;;;;;;;1.10;0.90;;;8.10;99.90;;;;;;5093047;28;20529;-84
2023/05/17 06:11:46;;;;;;;1.40;0.70;;;8.30;99.90;;;;;;5092823;28;20463;-84
2023/05/17 06:14:14;;;;;;;1.00;0.57;;;8.10;99.90;;;;;;5096170;28;20493;-84
2023/05/17 06:16:41;;;;;;;1.00;0.60;;;8.00;99.90;;;;;;5092899;28;20451;-84
2023/05/17 06:19:09;;;;;;;0.97;0.67;;;8.30;99.90;;;;;;5092442;28;20483;-84
2023/05/17 06:21:36;;;;;;;0.80;0.50;;;8.40;99.90;;;;;;5092866;28;20443;-84
2023/05/17 06:24:20;;;;;;;1.70;1.20;;;8.40;99.90;;;;;;5104029;28;20420;-83
2023/05/17 06:26:52;;;;;;;1.07;0.70;;;8.30;99.90;;;;;;5118937;28;20432;-83
2023/05/17 06:29:19;;;;;;;1.10;0.73;;;8.40;99.90;;;;;;5099292;28;20459;-84
2023/05/17 06:34:38;;;;;;;1.00;0.63;;;8.80;99.90;;;;;;5069301;28;20893;-56
2023/05/17 06:37:05;;;;;;;1.43;1.10;;;8.60;99.90;;;;;;5070818;28;20441;-56
2023/05/17 06:39:32;;;;;;;1.10;0.77;;;8.80;99.90;;;;;;5070579;28;20826;-57
2023/05/17 06:42:00;;;;;;;1.40;0.90;;;8.90;99.90;;;;;;5070426;28;20561;-56
2023/05/17 06:44:27;;;;;;;1.20;0.77;;;9.10;99.90;;;;;;5069975;28;20451;-56
2023/05/17 06:46:55;;;;;;;1.40;1.10;;;9.10;99.90;;;;;;5122577;22;20577;-84
2023/05/17 06:49:22;;;;;;;1.43;1.03;;;9.20;99.90;;;;;;5113541;28;20951;-84
2023/05/17 06:51:50;;;;;;;1.30;0.93;;;9.30;99.90;;;;;;5112660;28;20471;-84
2023/05/17 06:54:18;;;;;;;1.83;0.80;;;9.20;99.90;;;;;;5113330;28;20478;-84
2023/05/17 06:56:45;;;;;;;1.73;1.37;;;9.30;99.90;;;;;;5113646;28;20431;-84
2023/05/17 06:59:12;;;;;;;2.27;1.40;;;9.30;99.90;;;;;;5114017;28;20482;-84
2023/05/17 07:01:39;;;;;;;1.80;1.47;;;9.30;99.90;;;;;;5130818;22;20494;-55
2023/05/17 07:04:06;;;;;;;1.30;1.17;;;9.40;99.90;;;;;;5111975;28;20945;-54
2023/05/17 07:06:33;;;;;;;1.93;1.20;;;9.30;99.90;;;;;;5110809;28;20498;-54
2023/05/17 07:09:01;;;;;;;1.70;1.30;;;9.30;99.90;;;;;;5110274;28;20518;-55
2023/05/17 07:11:28;;;;;;;1.57;1.00;;;9.40;99.90;;;;;;5110244;28;20443;-53
2023/05/17 07:13:55;;;;;;;1.67;1.23;;;9.40;99.90;;;;;;5110931;28;20543;-55
2023/05/17 07:16:21;;;;;;;1.93;1.50;;;9.30;99.90;;;;;;5142638;22;20526;-83
2023/05/17 07:18:48;;;;;;;2.33;1.30;;;9.20;99.90;;;;;;5111424;28;20571;-83
2023/05/17 07:21:15;;;;;;;1.23;0.90;;;9.10;99.90;;;;;;5110431;28;20463;-83
2023/05/17 07:23:42;;;;;;;1.93;1.50;;;9.20;99.90;;;;;;5111589;28;20999;-83
2023/05/17 07:26:11;;;;;;;3.33;1.70;;;9.20;99.90;;;;;;5111966;28;20873;-83
2023/05/17 07:28:38;;;;;;;1.20;1.00;;;9.20;99.90;;;;;;5111712;28;20449;-83
2023/05/17 07:31:05;;;;;;;1.50;1.20;;;9.40;99.90;;;;;;5110950;28;20498;-83
2023/05/17 07:33:32;;;;;;;2.60;1.53;;;9.40;99.90;;;;;;5111725;28;20451;-83
2023/05/17 07:35:59;;;;;;;2.80;1.50;;;9.30;99.90;;;;;;5111444;28;20446;-83
2023/05/17 07:38:25;;;;;;;1.70;1.43;;;9.30;99.90;;;;;;5111892;28;20909;-83
2023/05/17 07:40:52;;;;;;;1.73;1.40;;;9.50;99.90;;;;;;5111180;28;20512;-83
2023/05/17 07:43:21;;;;;;;1.83;1.40;;;9.40;99.90;;;;;;5111621;28;21004;-83
2023/05/17 07:45:48;;;;;;;1.80;1.20;;;9.40;99.90;;;;;;5111686;28;20522;-83
2023/05/17 07:48:15;;;;;;;1.60;1.03;;;9.30;99.90;;;;;;5113468;28;20529;-83
2023/05/17 07:50:42;;;;;;;1.70;1.30;;;9.30;99.90;;;;;;5115509;28;20920;-83
2023/05/17 07:53:09;;;;;;;2.30;1.50;;;9.30;99.90;;;;;;5115663;28;20484;-82
2023/05/17 07:55:36;;;;;;;2.20;1.33;;;9.30;99.90;;;;;;5116104;28;20457;-83
2023/05/17 07:58:03;;;;;;;1.70;1.20;;;9.30;99.90;;;;;;5115333;28;20538;-83
2023/05/17 08:00:32;;;;;;;1.33;1.10;;;9.30;99.90;;;;;;5115843;28;20470;-83
2023/05/17 08:02:59;;;;;;;1.63;1.33;;;9.30;99.90;;;;;;5115858;28;20955;-83
2023/05/17 08:05:26;;;;;;;2.77;2.07;;;9.30;99.90;;;;;;5115504;28;20449;-83
2023/05/17 08:07:53;;;;;;;3.53;2.37;;;9.30;99.90;;;;;;5115696;28;20453;-83
2023/05/17 08:10:21;;;;;;;1.97;1.73;;;9.30;99.90;;;;;;5115338;28;20473;-83
2023/05/17 08:12:48;;;;;;;1.90;1.33;;;9.40;99.90;;;;;;5115413;28;20975;-83
2023/05/17 08:15:15;;;;;;;1.43;1.23;;;9.50;99.90;;;;;;5115135;28;20491;-83
2023/05/17 08:17:43;;;;;;;3.97;1.57;;;9.40;99.90;;;;;;5115421;28;20475;-83
2023/05/17 08:20:10;;;;;;;1.67;1.43;;;9.10;99.90;;;;;;5115268;28;20504;-83
2023/05/17 08:22:37;;;;;;;3.10;1.93;;;9.30;99.90;;;;;;5115293;28;20494;-83
2023/05/17 08:25:05;;;;;;;2.50;1.40;;;9.40;99.90;;;;;;5115593;28;20507;-89
2023/05/17 08:27:32;;;;;;;1.93;1.77;;;9.20;99.90;;;;;;5115018;28;20467;-83
2023/05/17 08:29:59;;;;;;;1.87;1.30;;;9.10;99.90;;;;;;5114173;28;20449;-83
2023/05/17 08:32:26;;;;;;;2.20;1.43;;;9.10;99.90;;;;;;5114571;28;20459;-83
2023/05/17 08:34:55;;;;;;;2.07;1.80;;;8.50;99.90;;;;;;5115095;28;20446;-83
2023/05/17 08:37:23;;;;;;;2.20;1.33;;;8.80;99.90;;;;;;5115511;28;20454;-83
2023/05/17 08:39:50;;;;;;;2.63;1.90;;;9.00;99.90;;;;;;5115242;28;20521;-83
2023/05/17 08:42:23;;;;;;;4.97;4.20;;;9.10;99.90;;;;;;5115351;28;20521;-83
2023/05/17 08:44:50;;;;;;;6.20;4.30;;;9.10;99.90;;;;;;5114845;28;20480;-83
2023/05/17 08:47:24;;;;;;;3.93;2.37;;;9.10;99.90;;;;;;5114723;28;21006;-83
2023/05/17 08:49:52;;;;;;;2.50;2.30;;;9.10;99.90;;;;;;5115214;28;20799;-83
2023/05/17 08:52:21;;;;;;;2.70;2.30;;;9.10;99.90;;;;;;5114265;28;20508;-83
2023/05/17 08:54:48;;;;;;;5.83;4.20;;;8.80;99.90;;;;;;5114731;28;20482;-83
2023/05/17 08:57:16;;;;;;;5.10;4.03;;;9.00;99.90;;;;;;5114391;28;20517;-83
2023/05/17 08:59:46;;;;;;;2.73;2.23;;;9.00;99.90;;;;;;5113692;28;20486;-83
2023/05/17 09:02:14;;;;;;;2.47;2.27;;;9.00;99.90;;;;;;5114427;28;20499;-83
2023/05/17 09:04:42;;;;;;;3.53;2.83;;;9.10;99.90;;;;;;5114570;28;20442;-83
2023/05/17 09:07:08;;;;;;;2.57;2.13;;;9.20;99.90;;;;;;5114538;28;20530;-83
2023/05/17 09:09:37;;;;;;;1.20;1.00;;;9.10;99.90;;;;;;5114367;28;20488;-83
2023/05/17 09:12:04;;;;;;;1.20;1.00;;;8.90;99.90;;;;;;5114265;28;20508;-83
2023/05/17 09:14:35;;;;;;;1.10;0.70;;;8.70;99.90;;;;;;5113941;28;20459;-82
2023/05/17 09:17:02;;;;;;;1.73;0.70;;;8.70;99.90;;;;;;5115312;28;20927;-83
2023/05/17 09:19:31;;;;;;;1.10;0.87;;;8.60;99.90;;;;;;5114025;28;20527;-83
2023/05/17 09:22:01;;;;;;;1.43;0.90;;;8.70;99.90;;;;;;5114106;28;20455;-83
2023/05/17 09:24:29;;;;;;;1.90;1.60;;;8.80;99.90;;;;;;5114170;28;20450;-83
2023/05/17 09:27:02;;;;;;;3.70;3.00;;;8.90;99.90;;;;;;5114073;28;20466;-83
2023/05/17 09:29:32;;;;;;;1.10;1.00;;;8.90;99.90;;;;;;5113244;28;20635;-83
2023/05/17 09:32:12;;;;;;;1.40;1.30;;;8.90;99.90;;;;;;5114037;28;20987;-83
2023/05/17 09:34:40;;;;;;;2.10;1.90;;;8.90;99.90;;;;;;5114032;28;20442;-83
2023/05/17 09:37:13;;;;;;;3.73;2.23;;;8.90;99.90;;;;;;5113918;28;20543;-83
2023/05/17 09:39:40;;;;;;;1.67;1.57;;;8.80;99.90;;;;;;5113827;28;20983;-83
2023/05/17 09:42:08;;;;;;;2.10;1.60;;;8.70;99.90;;;;;;5114038;28;20546;-83
2023/05/17 09:44:47;;;;;;;1.63;1.50;;;8.90;99.90;;;;;;5113479;28;20809;-82
2023/05/17 09:47:23;;;;;;;1.90;1.80;;;9.10;99.90;;;;;;5113525;28;20463;-83
2023/05/17 09:49:50;;;;;;;2.60;1.83;;;9.10;99.90;;;;;;5113846;28;20518;-83
2023/05/17 09:52:19;;;;;;;2.20;2.00;;;9.20;99.90;;;;;;5110909;28;20478;-83
2023/05/17 09:54:53;;;;;;;1.40;1.23;;;9.20;99.90;;;;;;5096326;28;20526;-83
2023/05/17 09:57:22;;;;;;;1.43;1.20;;;9.10;99.90;;;;;;5108697;28;20447;-83
2023/05/17 09:59:49;;;;;;;2.20;1.80;;;8.90;99.90;;;;;;5113550;28;20578;-83
2023/05/17 10:02:22;;;;;;;1.50;1.40;;;9.00;99.90;;;;;;5113141;28;20972;-83
2023/05/17 10:04:50;;;;;;;1.30;1.20;;;9.10;99.90;;;;;;5113606;28;20450;-83
2023/05/17 10:07:20;;;;;;;2.73;2.03;;;9.20;99.90;;;;;;5113491;28;20443;-83
2023/05/17 10:09:49;;;;;;;1.50;1.20;;;9.20;99.90;;;;;;5113038;28;20959;-83
2023/05/17 10:12:18;;;;;;;2.10;1.50;;;9.00;99.90;;;;;;5112907;28;20447;-82
2023/05/17 10:14:47;;;;;;;1.37;1.17;;;8.70;99.90;;;;;;5112961;28;21161;-82
2023/05/17 10:17:15;;;;;;;1.73;1.50;;;9.00;99.90;;;;;;5113372;28;20522;-83
2023/05/17 10:19:43;;;;;;;2.00;1.60;;;9.00;99.90;;;;;;5112603;28;20838;-82
2023/05/17 10:22:11;;;;;;;2.03;1.83;;;9.10;99.90;;;;;;5113554;28;20467;-83
2023/05/17 10:24:38;;;;;;;1.43;1.13;;;9.10;99.90;;;;;;5114877;28;20449;-82
2023/05/17 10:27:06;;;;;;;1.77;1.67;;;8.80;99.90;;;;;;5112952;28;20537;-82
2023/05/17 10:29:34;;;;;;;1.50;1.07;;;9.00;99.90;;;;;;5112873;28;20888;-82
2023/05/17 10:32:06;;;;;;;1.30;1.00;;;8.70;99.90;;;;;;5103177;28;20533;-82
2023/05/17 10:34:35;;;;;;;1.50;1.37;;;8.50;99.90;;;;;;5103999;28;20443;-82
2023/05/17 10:37:04;;;;;;;1.80;1.70;;;8.50;99.90;;;;;;5101937;28;20445;-81
2023/05/17 10:39:33;;;;;;;1.13;1.03;;;8.60;99.90;;;;;;5100719;28;20502;-82
2023/05/17 10:42:02;;;;;;;1.47;1.37;;;8.70;99.90;;;;;;5101981;28;20459;-82
2023/05/17 10:44:32;;;;;;;1.60;1.50;;;8.90;99.90;;;;;;5101549;28;20447;-82
2023/05/17 10:47:00;;;;;;;1.70;1.53;;;9.10;99.90;;;;;;5109883;28;20443;-82
2023/05/17 10:49:30;;;;;;;1.60;1.47;;;9.10;99.90;;;;;;5112672;28;20534;-82
2023/05/17 10:51:58;;;;;;;1.40;1.23;;;9.10;99.90;;;;;;5112614;28;21010;-82
2023/05/17 10:54:35;;;;;;;1.43;1.27;;;9.20;99.90;;;;;;5109486;28;20471;-83
2023/05/17 10:57:04;;;;;;;1.63;1.30;;;9.20;99.90;;;;;;5090801;28;20455;-82
2023/05/17 10:59:34;;;;;;;2.03;1.53;;;9.30;99.90;;;;;;5091782;28;20904;-83
2023/05/17 11:02:04;;;;;;;1.50;1.40;;;9.30;99.90;;;;;;5092015;28;20463;-83
2023/05/17 11:04:37;;;;;;;2.20;1.73;;;9.30;99.90;;;;;;5100304;28;20445;-83
2023/05/17 11:07:28;;;;;;;2.37;1.83;;;9.30;99.90;;;;;;5092123;28;20872;-83
2023/05/17 11:10:04;;;;;;;2.33;2.00;;;9.40;99.90;;;;;;5091335;28;20480;-83
2023/05/17 11:12:34;;;;;;;6.17;3.73;;;9.10;99.90;;;;;;5091444;28;20503;-83
2023/05/17 11:15:05;;;;;;;6.03;2.40;;;9.20;99.90;;;;;;5091410;28;20803;-83
2023/05/17 11:17:36;;;;;;;2.07;1.73;;;9.20;99.90;;;;;;5091506;28;20459;-83
2023/05/17 11:20:10;;;;;;;1.67;1.57;;;9.30;99.90;;;;;;5091411;28;21096;-83
2023/05/17 11:22:39;;;;;;;2.23;1.80;;;9.30;99.90;;;;;;5090468;28;20549;-83
2023/05/17 11:25:11;;;;;;;2.13;2.00;;;9.30;99.90;;;;;;5091551;28;20959;-83
2023/05/17 11:27:40;;;;;;;3.00;2.20;;;9.20;99.90;;;;;;5091136;28;20526;-83
2023/05/17 11:30:18;;;;;;;2.17;1.67;;;9.30;99.90;;;;;;5091761;28;20471;-82
2023/05/17 11:32:50;;;;;;;2.20;2.00;;;9.40;99.90;;;;;;5091821;28;20939;-83
2023/05/17 11:35:23;;;;;;;1.97;1.87;;;9.30;99.90;;;;;;5091753;28;20424;-83
2023/05/17 11:37:52;;;;;;;2.13;1.93;;;9.40;99.90;;;;;;5091409;28;20483;-83
2023/05/17 11:40:26;;;;;;;2.97;2.13;;;9.40;99.90;;;;;;5091382;28;20562;-83
2023/05/17 11:43:14;;;;;;;2.57;2.10;;;9.40;99.90;;;;;;5094666;28;20544;-83
2023/05/17 11:45:43;;;;;;;2.73;1.80;;;9.40;99.90;;;;;;5091933;28;20961;-83
2023/05/17 11:48:11;;;;;;;1.70;1.53;;;9.40;99.90;;;;;;5091529;28;20436;-83
2023/05/17 11:50:40;;;;;;;2.27;2.07;;;9.40;99.90;;;;;;5091085;28;20490;-83
2023/05/17 11:53:07;;;;;;;2.10;1.90;;;9.50;99.90;;;;;;5091947;28;20464;-83
2023/05/17 11:55:37;;;;;;;2.90;2.70;;;9.50;99.90;;;;;;5090957;28;20482;-83
2023/05/17 11:58:06;;;;;;;1.90;1.80;;;9.50;99.90;;;;;;5090573;28;20443;-83
2023/05/17 12:00:33;;;;;;;3.07;1.93;;;9.50;99.90;;;;;;5091313;28;20475;-83
2023/05/17 12:03:15;;;;;;;2.80;2.17;;;9.50;99.90;;;;;;5091201;28;20443;-83
2023/05/17 12:05:44;;;;;;;2.30;2.10;;;9.50;99.90;;;;;;5091307;28;20463;-83
2023/05/17 12:08:11;;;;;;;2.30;2.07;;;9.60;99.90;;;;;;5091185;28;20509;-83
2023/05/17 12:10:45;;;;;;;2.33;2.13;;;9.30;99.90;;;;;;5091318;28;20872;-83
2023/05/17 12:13:12;;;;;;;4.80;1.80;;;9.50;99.90;;;;;;5091706;28;20450;-83
2023/05/17 12:15:40;;;;;;;2.50;2.10;;;9.70;99.90;;;;;;5095921;28;20478;-83
2023/05/17 12:18:06;;;;;;;2.40;2.20;;;9.50;99.90;;;;;;5091725;28;20443;-83
2023/05/17 12:20:34;;;;;;;2.77;2.20;;;9.50;99.90;;;;;;5091081;28;20496;-83
2023/05/17 12:23:02;;;;;;;3.73;2.13;;;9.60;99.90;;;;;;5092250;28;20535;-83
2023/05/17 12:25:29;;;;;;;1.70;1.60;;;9.70;99.90;;;;;;5092072;28;20444;-83
2023/05/17 12:28:15;;;;;;;3.73;3.30;;;9.50;99.90;;;;;;5095715;28;20480;-83
2023/05/17 12:30:43;;;;;;;2.57;2.37;;;9.50;99.90;;;;;;5091992;28;20489;-82
2023/05/17 12:33:10;;;;;;;2.80;2.60;;;9.50;99.90;;;;;;5092128;28;20436;-83
2023/05/17 12:35:37;;;;;;;2.70;2.50;;;9.60;99.90;;;;;;5095621;28;20480;-83
2023/05/17 12:38:06;;;;;;;3.80;3.17;;;9.50;99.90;;;;;;5094520;28;20523;-83
2023/05/17 12:40:33;;;;;;;4.93;2.40;;;9.60;99.90;;;;;;5095358;28;20903;-83
2023/05/17 12:43:03;;;;;;;2.00;1.80;;;9.60;99.90;;;;;;5095329;28;20496;-83
2023/05/17 12:45:30;;;;;;;2.10;1.60;;;9.60;99.90;;;;;;5095213;28;20806;-83
2023/05/17 12:47:57;;;;;;;2.63;1.90;;;9.60;99.90;;;;;;5095504;28;20526;-83
2023/05/17 12:50:29;;;;;;;2.77;2.50;;;9.60;99.90;;;;;;5095233;28;20475;-83
2023/05/17 12:52:56;;;;;;;3.10;1.80;;;9.60;99.90;;;;;;5095337;28;20478;-83
2023/05/17 12:55:25;;;;;;;2.30;1.80;;;9.60;99.90;;;;;;5095000;28;20449;-83
2023/05/17 12:57:52;;;;;;;2.50;2.10;;;9.70;99.90;;;;;;5094173;28;20448;-82
2023/05/17 13:00:20;;;;;;;2.43;2.23;;;9.60;99.90;;;;;;5094912;28;20567;-83
2023/05/17 13:02:47;;;;;;;3.03;2.03;;;9.60;99.90;;;;;;5094600;28;21030;-83
2023/05/17 13:05:17;;;;;;;2.10;1.90;;;9.60;99.90;;;;;;5094956;28;20472;-83
2023/05/17 13:07:44;;;;;;;6.97;2.27;;;9.60;99.90;;;;;;5094620;28;20451;-83